createdAt,value
2018-10-01T00:00:43.025Z,4.00
2018-10-01T00:01:43.046Z,4.00
2018-10-01T00:02:43.056Z,4.00
2018-10-01T00:03:43.071Z,4.00
2018-10-01T00:04:43.145Z,4.00
2018-10-01T00:05:43.097Z,4.00
2018-10-01T00:06:43.120Z,4.00
2018-10-01T00:07:43.148Z,4.00
2018-10-01T00:08:43.152Z,4.00
2018-10-01T00:09:43.172Z,4.00
2018-10-01T00:10:43.181Z,4.00
2018-10-01T00:11:43.202Z,4.00
2018-10-01T00:12:43.220Z,4.00
2018-10-01T00:13:43.231Z,4.00
2018-10-01T00:14:43.246Z,4.00
2018-10-01T00:15:43.267Z,4.00
2018-10-01T00:16:43.312Z,4.00
2018-10-01T00:17:43.304Z,4.00
2018-10-01T00:18:43.349Z,4.00
2018-10-01T00:19:43.334Z,4.00
2018-10-01T00:20:43.360Z,4.00
2018-10-01T00:21:43.376Z,4.00
2018-10-01T00:22:43.413Z,4.00
2018-10-01T00:23:43.402Z,4.00
2018-10-01T00:24:43.419Z,4.00
2018-10-01T00:25:43.438Z,4.00
2018-10-01T00:26:43.456Z,4.00
2018-10-01T00:27:43.468Z,4.00
2018-10-01T00:28:43.483Z,4.00
2018-10-01T00:29:43.505Z,4.00
2018-10-01T00:30:43.518Z,4.00
2018-10-01T00:31:43.536Z,4.00
2018-10-01T00:32:43.546Z,4.00
2018-10-01T00:33:43.572Z,4.00
2018-10-01T00:34:43.590Z,4.00
2018-10-01T00:36:43.619Z,4.00
2018-10-01T00:37:43.629Z,4.00
2018-10-01T00:38:43.651Z,4.00
2018-10-01T00:39:43.668Z,4.00
2018-10-01T00:40:43.689Z,4.00
2018-10-01T00:41:43.708Z,4.00
2018-10-01T00:42:43.720Z,4.00
2018-10-01T00:43:43.732Z,4.00
2018-10-01T00:44:43.746Z,4.00
2018-10-01T00:45:43.757Z,4.00
2018-10-01T00:46:43.778Z,4.00
2018-10-01T00:47:43.795Z,4.00
2018-10-01T00:48:43.810Z,4.00
2018-10-01T00:49:43.832Z,4.00
2018-10-01T00:50:43.847Z,4.00
2018-10-01T00:51:43.864Z,4.00
2018-10-01T00:52:43.876Z,4.00
2018-10-01T00:53:43.893Z,4.00
2018-10-01T00:54:43.918Z,4.00
2018-10-01T00:55:43.925Z,4.00
2018-10-01T00:56:43.946Z,4.00
2018-10-01T00:57:43.967Z,4.00
2018-10-01T00:58:43.973Z,4.00
2018-10-01T00:59:43.993Z,4.00
2018-10-01T01:00:44.009Z,4.00
2018-10-01T01:01:44.030Z,4.00
2018-10-01T01:02:44.051Z,4.00
2018-10-01T01:03:44.068Z,4.00
2018-10-01T01:04:44.081Z,4.00
2018-10-01T01:05:44.182Z,4.00
2018-10-01T01:06:44.119Z,4.00
2018-10-01T01:07:44.131Z,4.00
2018-10-01T01:08:44.147Z,4.00
2018-10-01T01:09:44.165Z,4.00
2018-10-01T01:10:44.184Z,4.00
2018-10-01T01:11:44.201Z,4.00
2018-10-01T01:12:44.209Z,4.00
2018-10-01T01:13:44.232Z,4.00
2018-10-01T01:14:44.245Z,4.00
2018-10-01T01:15:44.265Z,4.00
2018-10-01T01:16:44.273Z,4.00
2018-10-01T01:17:44.353Z,4.00
2018-10-01T01:18:44.312Z,4.00
2018-10-01T01:19:44.324Z,4.00
2018-10-01T01:20:44.352Z,4.00
2018-10-01T01:21:44.368Z,4.00
2018-10-01T01:22:44.373Z,4.00
2018-10-01T01:23:44.447Z,4.00
2018-10-01T01:24:44.412Z,4.00
2018-10-01T01:25:44.426Z,4.00
2018-10-01T01:26:44.441Z,4.00
2018-10-01T01:27:44.453Z,4.00
2018-10-01T01:28:44.477Z,4.00
2018-10-01T01:29:44.552Z,4.00
2018-10-01T01:30:44.508Z,4.00
2018-10-01T01:31:44.528Z,4.00
2018-10-01T01:32:44.538Z,4.00
2018-10-01T01:33:44.565Z,4.00
2018-10-01T01:34:44.584Z,4.00
2018-10-01T01:35:44.616Z,4.00
2018-10-01T01:36:44.602Z,4.00
2018-10-01T01:37:44.625Z,4.00
2018-10-01T01:38:44.639Z,4.00
2018-10-01T01:39:44.656Z,4.00
2018-10-01T01:40:44.675Z,4.00
2018-10-01T01:41:44.752Z,4.00
2018-10-01T01:42:44.704Z,4.00
2018-10-01T01:43:44.728Z,4.00
2018-10-01T01:44:44.740Z,4.00
2018-10-01T01:45:44.760Z,4.00
2018-10-01T01:46:44.770Z,4.00
2018-10-01T01:47:44.832Z,4.00
2018-10-01T01:48:44.807Z,4.00
2018-10-01T01:49:44.824Z,4.00
2018-10-01T01:50:44.944Z,4.00
2018-10-01T01:51:44.864Z,4.00
2018-10-01T01:52:44.869Z,4.00
2018-10-01T01:53:44.918Z,4.00
2018-10-01T01:54:44.913Z,4.00
2018-10-01T01:55:44.922Z,4.00
2018-10-01T01:56:44.938Z,4.00
2018-10-01T01:57:44.958Z,4.00
2018-10-01T01:58:44.973Z,4.00
2018-10-01T01:59:45.008Z,4.00
2018-10-01T02:00:45.008Z,4.00
2018-10-01T02:01:45.021Z,4.00
2018-10-01T02:02:45.030Z,4.00
2018-10-01T02:03:45.048Z,4.00
2018-10-01T02:04:45.066Z,4.00
2018-10-01T02:05:45.077Z,4.00
2018-10-01T02:06:45.102Z,4.00
2018-10-01T02:07:45.118Z,4.00
2018-10-01T02:08:45.126Z,4.00
2018-10-01T02:09:45.149Z,4.00
2018-10-01T02:10:45.171Z,4.00
2018-10-01T02:11:45.186Z,4.00
2018-10-01T02:12:45.196Z,4.00
2018-10-01T02:13:45.213Z,4.00
2018-10-01T02:14:45.229Z,4.00
2018-10-01T02:15:45.255Z,4.00
2018-10-01T02:16:45.268Z,4.00
2018-10-01T02:17:45.288Z,4.00
2018-10-01T02:18:45.300Z,4.00
2018-10-01T02:19:45.314Z,4.00
2018-10-01T02:20:45.336Z,4.00
2018-10-01T02:21:45.345Z,4.00
2018-10-01T02:22:45.370Z,4.00
2018-10-01T02:23:45.377Z,4.00
2018-10-01T02:24:45.477Z,4.00
2018-10-01T02:25:45.413Z,4.00
2018-10-01T02:26:45.436Z,4.00
2018-10-01T02:27:45.454Z,4.00
2018-10-01T02:28:45.462Z,4.00
2018-10-01T02:29:45.480Z,4.00
2018-10-01T02:30:45.498Z,4.00
2018-10-01T02:31:45.521Z,4.00
2018-10-01T02:32:45.526Z,4.00
2018-10-01T02:33:45.552Z,4.00
2018-10-01T02:34:45.564Z,4.00
2018-10-01T02:35:45.601Z,4.00
2018-10-01T02:36:45.613Z,4.00
2018-10-01T02:37:45.609Z,4.00
2018-10-01T02:38:45.628Z,4.00
2018-10-01T02:39:45.642Z,4.00
2018-10-01T02:40:45.655Z,4.00
2018-10-01T02:41:45.675Z,4.00
2018-10-01T02:42:45.704Z,4.00
2018-10-01T02:43:45.711Z,4.00
2018-10-01T02:44:45.725Z,4.00
2018-10-01T02:45:45.741Z,4.00
2018-10-01T02:46:45.762Z,4.00
2018-10-01T02:47:45.818Z,4.00
2018-10-01T02:48:45.785Z,4.00
2018-10-01T02:49:45.806Z,4.00
2018-10-01T02:50:45.833Z,4.00
2018-10-01T02:51:45.841Z,4.00
2018-10-01T02:52:45.850Z,4.00
2018-10-01T02:53:45.870Z,4.00
2018-10-01T02:54:45.889Z,4.00
2018-10-01T02:55:45.912Z,4.00
2018-10-01T02:56:45.926Z,4.00
2018-10-01T02:57:45.940Z,4.00
2018-10-01T02:58:45.950Z,4.00
2018-10-01T02:59:45.974Z,4.00
2018-10-01T03:00:45.993Z,4.00
2018-10-01T03:01:46.004Z,4.00
2018-10-01T03:02:46.018Z,4.00
2018-10-01T03:03:46.038Z,4.00
2018-10-01T03:04:46.059Z,4.00
2018-10-01T03:05:46.066Z,4.00
2018-10-01T03:06:46.091Z,4.00
2018-10-01T03:07:46.107Z,4.00
2018-10-01T03:08:46.124Z,4.00
2018-10-01T03:09:46.135Z,4.00
2018-10-01T03:10:46.156Z,4.00
2018-10-01T03:11:46.168Z,4.00
2018-10-01T03:12:46.206Z,4.00
2018-10-01T03:13:46.203Z,4.00
2018-10-01T03:14:46.207Z,4.00
2018-10-01T03:15:46.228Z,4.00
2018-10-01T03:16:46.246Z,4.00
2018-10-01T03:17:46.260Z,4.00
2018-10-01T03:18:46.366Z,4.00
2018-10-01T03:19:46.290Z,4.00
2018-10-01T03:20:46.323Z,4.00
2018-10-01T03:21:46.326Z,4.00
2018-10-01T03:22:46.345Z,4.00
2018-10-01T03:23:46.358Z,4.00
2018-10-01T03:24:46.397Z,4.00
2018-10-01T03:25:46.397Z,4.00
2018-10-01T03:26:46.401Z,4.00
2018-10-01T03:27:46.433Z,4.00
2018-10-01T03:28:46.438Z,4.00
2018-10-01T03:29:46.454Z,4.00
2018-10-01T03:30:46.470Z,4.00
2018-10-01T03:31:46.487Z,4.00
2018-10-01T03:32:46.508Z,4.00
2018-10-01T03:33:46.518Z,4.00
2018-10-01T03:34:46.537Z,4.00
2018-10-01T03:35:46.557Z,4.00
2018-10-01T03:36:46.576Z,4.00
2018-10-01T03:37:46.585Z,4.00
2018-10-01T03:38:46.602Z,4.00
2018-10-01T03:39:46.629Z,4.00
2018-10-01T03:40:46.635Z,4.00
2018-10-01T03:41:46.658Z,4.00
2018-10-01T03:42:46.760Z,4.00
2018-10-01T03:43:46.686Z,4.00
2018-10-01T03:44:46.703Z,4.00
2018-10-01T03:45:46.713Z,4.00
2018-10-01T03:46:46.731Z,4.00
2018-10-01T03:47:46.749Z,4.00
2018-10-01T03:48:46.791Z,4.00
2018-10-01T03:49:46.780Z,4.00
2018-10-01T03:50:46.801Z,4.00
2018-10-01T03:51:46.814Z,4.00
2018-10-01T03:52:46.831Z,4.00
2018-10-01T03:53:46.842Z,4.00
2018-10-01T03:54:46.865Z,4.00
2018-10-01T03:55:46.885Z,4.00
2018-10-01T03:56:46.901Z,4.00
2018-10-01T03:57:46.911Z,4.00
2018-10-01T03:58:46.930Z,4.00
2018-10-01T03:59:46.949Z,4.00
2018-10-01T04:00:46.968Z,4.00
2018-10-01T04:01:46.982Z,4.00
2018-10-01T04:02:47.033Z,4.00
2018-10-01T04:03:47.007Z,4.00
2018-10-01T04:04:47.033Z,4.00
2018-10-01T04:05:47.045Z,4.00
2018-10-01T04:06:47.059Z,4.00
2018-10-01T04:07:47.080Z,4.00
2018-10-01T04:08:47.178Z,4.00
2018-10-01T04:09:47.109Z,4.00
2018-10-01T04:10:47.117Z,4.00
2018-10-01T04:11:47.145Z,4.00
2018-10-01T04:12:47.204Z,4.00
2018-10-01T04:13:47.171Z,4.00
2018-10-01T04:14:47.190Z,4.00
2018-10-01T04:15:47.257Z,4.00
2018-10-01T04:16:47.219Z,4.00
2018-10-01T04:17:47.242Z,4.00
2018-10-01T04:18:47.261Z,4.00
2018-10-01T04:19:47.277Z,4.00
2018-10-01T04:20:47.283Z,4.00
2018-10-01T04:21:47.307Z,4.00
2018-10-01T04:22:47.348Z,4.00
2018-10-01T04:23:47.339Z,4.00
2018-10-01T04:24:47.353Z,4.00
2018-10-01T04:25:47.367Z,4.00
2018-10-01T04:26:47.383Z,4.00
2018-10-01T04:27:47.394Z,4.00
2018-10-01T04:28:47.425Z,4.00
2018-10-01T04:29:47.441Z,4.00
2018-10-01T04:30:47.455Z,4.00
2018-10-01T04:31:47.467Z,4.00
2018-10-01T04:32:47.479Z,4.00
2018-10-01T04:33:47.500Z,4.00
2018-10-01T04:34:47.520Z,4.00
2018-10-01T04:35:47.528Z,4.00
2018-10-01T04:36:47.552Z,4.00
2018-10-01T04:37:47.569Z,4.00
2018-10-01T04:38:47.582Z,4.00
2018-10-01T04:39:47.595Z,4.00
2018-10-01T04:40:47.716Z,4.00
2018-10-01T04:41:47.631Z,4.00
2018-10-01T04:42:47.658Z,4.00
2018-10-01T04:43:47.664Z,4.00
2018-10-01T04:44:47.687Z,4.00
2018-10-01T04:45:47.701Z,4.00
2018-10-01T04:46:47.748Z,4.00
2018-10-01T04:47:47.732Z,4.00
2018-10-01T04:48:47.738Z,4.00
2018-10-01T04:49:47.763Z,4.00
2018-10-01T04:50:47.785Z,4.00
2018-10-01T04:51:47.795Z,4.00
2018-10-01T04:52:47.812Z,4.00
2018-10-01T04:53:47.825Z,4.00
2018-10-01T04:54:47.842Z,4.00
2018-10-01T04:55:47.861Z,4.00
2018-10-01T04:56:47.878Z,4.00
2018-10-01T04:57:47.884Z,4.00
2018-10-01T04:58:47.907Z,4.00
2018-10-01T04:59:47.919Z,4.00
2018-10-01T05:00:47.942Z,4.00
2018-10-01T05:01:47.947Z,4.00
2018-10-01T05:02:47.978Z,4.00
2018-10-01T05:03:47.990Z,4.00
2018-10-01T05:04:48.008Z,4.00
2018-10-01T05:05:48.021Z,4.00
2018-10-01T05:06:48.038Z,4.00
2018-10-01T05:07:48.051Z,4.00
2018-10-01T05:08:48.072Z,4.00
2018-10-01T05:09:48.091Z,4.00
2018-10-01T05:10:48.095Z,4.00
2018-10-01T05:11:48.121Z,4.00
2018-10-01T05:12:48.135Z,4.00
2018-10-01T05:13:48.150Z,4.00
2018-10-01T05:14:48.205Z,4.00
2018-10-01T05:15:48.180Z,4.00
2018-10-01T05:16:48.196Z,4.00
2018-10-01T05:17:48.223Z,4.00
2018-10-01T05:18:48.242Z,4.00
2018-10-01T05:19:48.244Z,4.00
2018-10-01T05:20:48.259Z,4.00
2018-10-01T05:21:48.279Z,4.00
2018-10-01T05:22:48.295Z,4.00
2018-10-01T05:23:48.312Z,4.00
2018-10-01T05:24:48.327Z,4.00
2018-10-01T05:25:48.417Z,4.00
2018-10-01T05:26:48.356Z,4.00
2018-10-01T05:27:48.378Z,4.00
2018-10-01T05:28:48.392Z,4.00
2018-10-01T05:29:48.410Z,4.00
2018-10-01T05:30:48.428Z,4.00
2018-10-01T05:31:48.439Z,4.00
2018-10-01T05:32:48.458Z,4.00
2018-10-01T05:33:48.481Z,4.00
2018-10-01T05:34:48.494Z,4.00
2018-10-01T05:35:48.510Z,4.00
2018-10-01T05:36:48.531Z,4.00
2018-10-01T05:37:48.632Z,4.00
2018-10-01T05:38:48.561Z,4.00
2018-10-01T05:39:48.578Z,4.00
2018-10-01T05:40:48.588Z,4.00
2018-10-01T05:41:48.603Z,4.00
2018-10-01T05:42:48.630Z,4.00
2018-10-01T05:43:48.686Z,4.00
2018-10-01T05:44:48.653Z,4.00
2018-10-01T05:45:48.678Z,4.00
2018-10-01T05:46:48.688Z,4.00
2018-10-01T05:47:48.706Z,4.00
2018-10-01T05:48:48.718Z,4.00
2018-10-01T05:49:48.786Z,4.00
2018-10-01T05:50:48.749Z,4.00
2018-10-01T05:51:48.771Z,4.00
2018-10-01T05:52:48.788Z,4.00
2018-10-01T05:53:48.802Z,4.00
2018-10-01T05:54:48.820Z,4.00
2018-10-01T05:55:48.870Z,4.00
2018-10-01T05:56:48.856Z,4.00
2018-10-01T05:57:49.009Z,4.00
2018-10-01T05:58:48.887Z,4.00
2018-10-01T05:59:48.899Z,4.00
2018-10-01T06:00:48.909Z,4.00
2018-10-01T06:01:48.956Z,4.00
2018-10-01T06:02:48.941Z,4.00
2018-10-01T06:03:48.966Z,4.00
2018-10-01T06:04:49.049Z,4.00
2018-10-01T06:05:48.994Z,4.00
2018-10-01T06:06:49.011Z,0.00
2018-10-01T06:07:49.080Z,0.00
2018-10-01T06:08:49.047Z,0.00
2018-10-01T06:09:49.060Z,4.00
2018-10-01T06:10:49.076Z,4.00
2018-10-01T06:11:49.113Z,4.00
2018-10-01T06:12:49.109Z,4.00
2018-10-01T06:13:49.136Z,4.00
2018-10-01T06:14:49.140Z,4.00
2018-10-01T06:15:49.153Z,4.00
2018-10-01T06:16:49.175Z,8.00
2018-10-01T06:17:49.188Z,12.00
2018-10-01T06:18:49.215Z,12.00
2018-10-01T06:19:49.220Z,16.00
2018-10-01T06:20:49.243Z,20.00
2018-10-01T06:21:49.259Z,20.00
2018-10-01T06:22:49.284Z,28.00
2018-10-01T06:23:49.288Z,32.00
2018-10-01T06:24:49.311Z,36.00
2018-10-01T06:25:49.315Z,44.00
2018-10-01T06:26:49.333Z,48.00
2018-10-01T06:27:49.358Z,60.00
2018-10-01T06:28:49.369Z,64.00
2018-10-01T06:29:49.387Z,72.00
2018-10-01T06:30:49.400Z,84.00
2018-10-01T06:31:49.422Z,92.00
2018-10-01T06:32:49.445Z,104.00
2018-10-01T06:33:49.444Z,112.00
2018-10-01T06:34:49.466Z,128.00
2018-10-01T06:35:49.489Z,140.00
2018-10-01T06:36:49.492Z,152.00
2018-10-01T06:37:49.510Z,164.00
2018-10-01T06:38:49.583Z,180.00
2018-10-01T06:39:49.540Z,196.00
2018-10-01T06:40:49.555Z,216.00
2018-10-01T06:41:49.668Z,236.00
2018-10-01T06:42:49.646Z,256.00
2018-10-01T06:43:49.615Z,272.00
2018-10-01T06:44:49.648Z,300.00
2018-10-01T06:45:49.645Z,320.00
2018-10-01T06:46:49.662Z,344.00
2018-10-01T06:47:49.673Z,364.00
2018-10-01T06:48:49.694Z,388.00
2018-10-01T06:49:49.707Z,412.00
2018-10-01T06:50:49.775Z,436.00
2018-10-01T06:51:49.741Z,460.00
2018-10-01T06:52:49.754Z,488.00
2018-10-01T06:53:49.771Z,512.00
2018-10-01T06:54:49.793Z,536.00
2018-10-01T06:55:49.810Z,560.00
2018-10-01T06:56:49.879Z,592.00
2018-10-01T06:57:49.833Z,620.00
2018-10-01T06:58:49.928Z,648.00
2018-10-01T06:59:49.864Z,676.00
2018-10-01T07:00:50.690Z,700.00
2018-10-01T07:01:49.907Z,728.00
2018-10-01T07:02:49.914Z,760.00
2018-10-01T07:03:49.932Z,796.00
2018-10-01T07:04:49.941Z,836.00
2018-10-01T07:05:50.128Z,836.00
2018-10-01T07:06:49.990Z,868.00
2018-10-01T07:07:50.027Z,892.00
2018-10-01T07:08:50.019Z,924.00
2018-10-01T07:09:50.036Z,948.00
2018-10-01T07:10:50.050Z,980.00
2018-10-01T07:11:50.067Z,1008.00
2018-10-01T07:12:50.081Z,1036.00
2018-10-01T07:13:50.092Z,1068.00
2018-10-01T07:14:50.110Z,1100.00
2018-10-01T07:15:50.131Z,1132.00
2018-10-01T07:16:50.194Z,1168.00
2018-10-01T07:17:50.159Z,1200.00
2018-10-01T07:18:50.178Z,1244.00
2018-10-01T07:19:50.210Z,1280.00
2018-10-01T07:20:50.215Z,1328.00
2018-10-01T07:21:50.227Z,1372.00
2018-10-01T07:22:50.354Z,1428.00
2018-10-01T07:23:50.260Z,1504.00
2018-10-01T07:24:50.269Z,1608.00
2018-10-01T07:25:50.284Z,1784.00
2018-10-01T07:26:50.305Z,2076.00
2018-10-01T07:27:50.317Z,2488.00
2018-10-01T07:28:50.340Z,2972.00
2018-10-01T07:29:50.357Z,3228.00
2018-10-01T07:30:50.369Z,3364.00
2018-10-01T07:31:50.390Z,3476.00
2018-10-01T07:32:50.403Z,3576.00
2018-10-01T07:33:50.421Z,3684.00
2018-10-01T07:34:50.439Z,3796.00
2018-10-01T07:35:50.459Z,3908.00
2018-10-01T07:36:50.478Z,3992.00
2018-10-01T07:37:50.492Z,4108.00
2018-10-01T07:38:50.612Z,4232.00
2018-10-01T07:39:50.527Z,4352.00
2018-10-01T07:40:50.541Z,4460.00
2018-10-01T07:41:50.562Z,4580.00
2018-10-01T07:42:50.579Z,4660.00
2018-10-01T07:43:50.588Z,4768.00
2018-10-01T07:44:50.670Z,4848.00
2018-10-01T07:45:50.632Z,4908.00
2018-10-01T07:46:50.647Z,4984.00
2018-10-01T07:47:50.732Z,5060.00
2018-10-01T07:48:50.685Z,5124.00
2018-10-01T07:49:50.706Z,5236.00
2018-10-01T07:50:50.966Z,5320.00
2018-10-01T07:51:50.758Z,5376.00
2018-10-01T07:52:50.767Z,5476.00
2018-10-01T07:53:50.784Z,5452.00
2018-10-01T07:54:50.819Z,5480.00
2018-10-01T07:55:50.821Z,5664.00
2018-10-01T07:56:50.857Z,5760.00
2018-10-01T07:57:50.861Z,5816.00
2018-10-01T07:58:50.874Z,5928.00
2018-10-01T07:59:51.080Z,6004.00
2018-10-01T08:00:50.913Z,6092.00
2018-10-01T08:01:50.940Z,6192.00
2018-10-01T08:02:50.958Z,6240.00
2018-10-01T08:03:50.975Z,6336.00
2018-10-01T08:04:50.996Z,6380.00
2018-10-01T08:05:51.010Z,6452.00
2018-10-01T08:06:51.030Z,6528.00
2018-10-01T08:07:51.060Z,6560.00
2018-10-01T08:08:51.080Z,6676.00
2018-10-01T08:09:51.086Z,6736.00
2018-10-01T08:10:51.114Z,6772.00
2018-10-01T08:11:51.138Z,6888.00
2018-10-01T08:12:51.152Z,6984.00
2018-10-01T08:13:51.172Z,7048.00
2018-10-01T08:14:51.191Z,7156.00
2018-10-01T08:15:51.257Z,7264.00
2018-10-01T08:16:51.241Z,7324.00
2018-10-01T08:17:51.262Z,7412.00
2018-10-01T08:18:51.273Z,7488.00
2018-10-01T08:19:51.294Z,7548.00
2018-10-01T08:20:51.313Z,7612.00
2018-10-01T08:23:51.377Z,7740.00
2018-10-01T08:24:51.440Z,7800.00
2018-10-01T08:25:51.414Z,7848.00
2018-10-01T08:26:51.462Z,7932.00
2018-10-01T08:27:51.450Z,7948.00
2018-10-01T08:28:51.477Z,7988.00
2018-10-01T08:29:51.675Z,8032.00
2018-10-01T08:30:51.510Z,8120.00
2018-10-01T08:31:51.534Z,8204.00
2018-10-01T08:32:51.560Z,8304.00
2018-10-01T08:33:51.576Z,8352.00
2018-10-01T08:34:51.598Z,8456.00
2018-10-01T08:35:51.624Z,8536.00
2018-10-01T08:36:51.637Z,8616.00
2018-10-01T08:37:51.664Z,8684.00
2018-10-01T08:38:51.719Z,8752.00
2018-10-01T08:39:51.705Z,8812.00
2018-10-01T08:40:51.729Z,8384.00
2018-10-01T08:41:51.739Z,8788.00
2018-10-01T08:42:51.763Z,8840.00
2018-10-01T08:43:51.787Z,8892.00
2018-10-01T08:44:51.796Z,8972.00
2018-10-01T08:45:51.819Z,8992.00
2018-10-01T08:46:51.849Z,9080.00
2018-10-01T08:47:51.860Z,9136.00
2018-10-01T08:48:52.089Z,9180.00
2018-10-01T08:49:51.911Z,9212.00
2018-10-01T08:50:51.927Z,9276.00
2018-10-01T08:51:52.098Z,9300.00
2018-10-01T08:52:51.978Z,9356.00
2018-10-01T08:53:52.004Z,9424.00
2018-10-01T08:54:52.015Z,9456.00
2018-10-01T08:55:52.043Z,9504.00
2018-10-01T08:56:52.054Z,9528.00
2018-10-01T08:57:52.082Z,9532.00
2018-10-01T08:58:52.096Z,9588.00
2018-10-01T08:59:52.126Z,9648.00
2018-10-01T09:00:52.137Z,9708.00
2018-10-01T09:01:52.159Z,9712.00
2018-10-01T09:02:52.216Z,9788.00
2018-10-01T09:03:52.211Z,9832.00
2018-10-01T09:04:52.232Z,9888.00
2018-10-01T09:05:52.252Z,9488.00
2018-10-01T09:06:52.381Z,9964.00
2018-10-01T09:07:52.299Z,10024.00
2018-10-01T09:08:52.321Z,10064.00
2018-10-01T09:09:52.409Z,10108.00
2018-10-01T09:10:52.364Z,10144.00
2018-10-01T09:11:52.377Z,10188.00
2018-10-01T09:12:52.410Z,10268.00
2018-10-01T09:13:52.427Z,10280.00
2018-10-01T09:14:52.516Z,10344.00
2018-10-01T09:15:52.515Z,10372.00
2018-10-01T09:16:52.487Z,10432.00
2018-10-01T09:17:52.558Z,10492.00
2018-10-01T09:18:52.539Z,10084.00
2018-10-01T09:19:52.556Z,10528.00
2018-10-01T09:20:52.577Z,10600.00
2018-10-01T09:21:52.599Z,10604.00
2018-10-01T09:22:52.623Z,10640.00
2018-10-01T09:23:52.644Z,10676.00
2018-10-01T09:24:52.677Z,10748.00
2018-10-01T09:25:52.688Z,10796.00
2018-10-01T09:26:52.710Z,10808.00
2018-10-01T09:27:52.727Z,10864.00
2018-10-01T09:28:52.754Z,10908.00
2018-10-01T09:29:52.776Z,10972.00
2018-10-01T09:30:52.840Z,11020.00
2018-10-01T09:31:52.815Z,11048.00
2018-10-01T09:32:52.855Z,11112.00
2018-10-01T09:33:52.860Z,11140.00
2018-10-01T09:34:52.890Z,11192.00
2018-10-01T09:35:52.912Z,11248.00
2018-10-01T09:36:52.933Z,11280.00
2018-10-01T09:37:52.952Z,11308.00
2018-10-01T09:38:53.037Z,11364.00
2018-10-01T09:39:53.002Z,11396.00
2018-10-01T09:40:53.024Z,11408.00
2018-10-01T09:41:53.044Z,11436.00
2018-10-01T09:42:53.067Z,11444.00
2018-10-01T09:43:53.093Z,11468.00
2018-10-01T09:44:53.178Z,11480.00
2018-10-01T09:45:53.191Z,11512.00
2018-10-01T09:46:53.156Z,11508.00
2018-10-01T09:47:53.211Z,11548.00
2018-10-01T09:48:53.205Z,11308.00
2018-10-01T09:49:53.230Z,11572.00
2018-10-01T09:50:53.311Z,11656.00
2018-10-01T09:51:53.272Z,11688.00
2018-10-01T09:52:53.288Z,11688.00
2018-10-01T09:53:53.307Z,11696.00
2018-10-01T09:54:53.334Z,11748.00
2018-10-01T09:55:53.371Z,11788.00
2018-10-01T09:56:53.448Z,11780.00
2018-10-01T09:57:53.411Z,11816.00
2018-10-01T09:58:53.429Z,11868.00
2018-10-01T09:59:53.454Z,11864.00
2018-10-01T10:00:53.482Z,11916.00
2018-10-01T10:01:53.491Z,11952.00
2018-10-01T10:02:53.538Z,11964.00
2018-10-01T10:03:53.597Z,11964.00
2018-10-01T10:04:53.607Z,12004.00
2018-10-01T10:05:53.589Z,11996.00
2018-10-01T10:06:53.609Z,12000.00
2018-10-01T10:07:53.631Z,12064.00
2018-10-01T10:08:53.652Z,12108.00
2018-10-01T10:09:53.685Z,12072.00
2018-10-01T10:10:53.706Z,12112.00
2018-10-01T10:11:53.725Z,12112.00
2018-10-01T10:12:53.743Z,12144.00
2018-10-01T10:13:53.771Z,12116.00
2018-10-01T10:14:53.792Z,12176.00
2018-10-01T10:15:53.815Z,12196.00
2018-10-01T10:16:53.988Z,12176.00
2018-10-01T10:17:54.115Z,12204.00
2018-10-01T10:18:54.084Z,12288.00
2018-10-01T10:19:53.907Z,12244.00
2018-10-01T10:20:53.927Z,12224.00
2018-10-01T10:21:54.027Z,12280.00
2018-10-01T10:22:53.981Z,12364.00
2018-10-01T10:23:54.002Z,12392.00
2018-10-01T10:24:54.018Z,12360.00
2018-10-01T10:25:54.047Z,12400.00
2018-10-01T10:26:54.081Z,12000.00
2018-10-01T10:27:54.107Z,12456.00
2018-10-01T10:28:54.128Z,12492.00
2018-10-01T10:29:54.145Z,12484.00
2018-10-01T10:30:54.172Z,12456.00
2018-10-01T10:31:54.231Z,12456.00
2018-10-01T10:32:54.213Z,12528.00
2018-10-01T10:33:54.235Z,12504.00
2018-10-01T10:34:54.257Z,12492.00
2018-10-01T10:35:54.289Z,12576.00
2018-10-01T10:36:54.311Z,12596.00
2018-10-01T10:37:54.336Z,12608.00
2018-10-01T10:38:54.355Z,12664.00
2018-10-01T10:39:54.386Z,12660.00
2018-10-01T10:40:54.407Z,12644.00
2018-10-01T10:41:54.535Z,12652.00
2018-10-01T10:42:54.454Z,12660.00
2018-10-01T10:43:54.483Z,12668.00
2018-10-01T10:44:54.497Z,12624.00
2018-10-01T10:45:54.522Z,12676.00
2018-10-01T10:46:54.539Z,12716.00
2018-10-01T10:47:54.596Z,12716.00
2018-10-01T10:48:54.586Z,12652.00
2018-10-01T10:49:54.629Z,12704.00
2018-10-01T10:50:54.642Z,12780.00
2018-10-01T10:51:54.664Z,12832.00
2018-10-01T10:52:54.687Z,12856.00
2018-10-01T10:53:54.711Z,12840.00
2018-10-01T10:54:54.739Z,12796.00
2018-10-01T10:55:54.813Z,12868.00
2018-10-01T10:56:54.797Z,12832.00
2018-10-01T10:57:54.805Z,12820.00
2018-10-01T10:58:54.837Z,12844.00
2018-10-01T10:59:54.852Z,12872.00
2018-10-01T11:00:54.881Z,12940.00
2018-10-01T11:01:54.925Z,12920.00
2018-10-01T11:02:54.924Z,13048.00
2018-10-01T11:03:54.951Z,13024.00
2018-10-01T11:04:55.008Z,13008.00
2018-10-01T11:05:55.002Z,13008.00
2018-10-01T11:06:55.019Z,12624.00
2018-10-01T11:07:55.087Z,12936.00
2018-10-01T11:08:55.072Z,12968.00
2018-10-01T11:09:55.084Z,12928.00
2018-10-01T11:10:55.125Z,12852.00
2018-10-01T11:11:55.147Z,13040.00
2018-10-01T11:12:55.164Z,13128.00
2018-10-01T11:13:55.221Z,13124.00
2018-10-01T11:14:55.410Z,13076.00
2018-10-01T11:15:55.244Z,13072.00
2018-10-01T11:16:55.262Z,13084.00
2018-10-01T11:17:55.341Z,13036.00
2018-10-01T11:18:55.497Z,13016.00
2018-10-01T11:19:55.406Z,13008.00
2018-10-01T11:20:55.477Z,13032.00
2018-10-01T11:21:55.520Z,13024.00
2018-10-01T11:22:55.469Z,13052.00
2018-10-01T11:23:55.427Z,13056.00
2018-10-01T11:24:55.447Z,13104.00
2018-10-01T11:25:55.516Z,12988.00
2018-10-01T11:26:55.559Z,12876.00
2018-10-01T11:27:55.685Z,12984.00
2018-10-01T11:28:55.575Z,12968.00
2018-10-01T11:29:55.590Z,12992.00
2018-10-01T11:30:55.591Z,13164.00
2018-10-01T11:31:55.832Z,13116.00
2018-10-01T11:32:55.656Z,13072.00
2018-10-01T11:33:55.659Z,13076.00
2018-10-01T11:34:55.864Z,13040.00
2018-10-01T11:35:55.711Z,13052.00
2018-10-01T11:36:55.742Z,13028.00
2018-10-01T11:37:55.763Z,12952.00
2018-10-01T11:38:55.798Z,13048.00
2018-10-01T11:39:55.814Z,13020.00
2018-10-01T11:40:55.840Z,12992.00
2018-10-01T11:41:55.860Z,13072.00
2018-10-01T11:42:55.894Z,12704.00
2018-10-01T11:43:55.913Z,12980.00
2018-10-01T11:44:55.931Z,13108.00
2018-10-01T11:45:55.953Z,13124.00
2018-10-01T11:46:55.985Z,13048.00
2018-10-01T11:47:56.012Z,12996.00
2018-10-01T11:48:56.034Z,13072.00
2018-10-01T11:49:56.051Z,13064.00
2018-10-01T11:50:56.088Z,12900.00
2018-10-01T11:51:56.110Z,12984.00
2018-10-01T11:52:56.131Z,12924.00
2018-10-01T11:53:56.218Z,12980.00
2018-10-01T11:54:56.198Z,12996.00
2018-10-01T11:55:56.204Z,13076.00
2018-10-01T11:56:56.295Z,13092.00
2018-10-01T11:57:56.247Z,13052.00
2018-10-01T11:58:56.267Z,13056.00
2018-10-01T11:59:56.330Z,13008.00
2018-10-01T12:00:56.317Z,13040.00
2018-10-01T12:01:56.347Z,13068.00
2018-10-01T12:02:56.386Z,13068.00
2018-10-01T12:03:56.455Z,13036.00
2018-10-01T12:04:56.418Z,12984.00
2018-10-01T12:05:56.443Z,12848.00
2018-10-01T12:06:56.518Z,12840.00
2018-10-01T12:07:56.492Z,12968.00
2018-10-01T12:08:56.578Z,12876.00
2018-10-01T12:09:56.648Z,12944.00
2018-10-01T12:10:56.551Z,12944.00
2018-10-01T12:11:56.608Z,12944.00
2018-10-01T12:12:56.606Z,12424.00
2018-10-01T12:13:56.633Z,12912.00
2018-10-01T12:14:56.721Z,12884.00
2018-10-01T12:15:56.871Z,12884.00
2018-10-01T12:16:56.701Z,12872.00
2018-10-01T12:17:56.740Z,12788.00
2018-10-01T12:18:56.753Z,12772.00
2018-10-01T12:19:56.776Z,12768.00
2018-10-01T12:20:56.805Z,12720.00
2018-10-01T12:21:56.854Z,12808.00
2018-10-01T12:22:56.842Z,12784.00
2018-10-01T12:23:56.903Z,12728.00
2018-10-01T12:24:56.886Z,12700.00
2018-10-01T12:25:56.929Z,12748.00
2018-10-01T12:26:56.972Z,12848.00
2018-10-01T12:27:56.965Z,12816.00
2018-10-01T12:28:57.051Z,12772.00
2018-10-01T12:29:57.020Z,12768.00
2018-10-01T12:30:57.097Z,12836.00
2018-10-01T12:31:57.062Z,12728.00
2018-10-01T12:32:57.104Z,12744.00
2018-10-01T12:33:57.114Z,12780.00
2018-10-01T12:34:57.143Z,12720.00
2018-10-01T12:35:57.180Z,12692.00
2018-10-01T12:36:57.185Z,12764.00
2018-10-01T12:37:57.211Z,12628.00
2018-10-01T12:38:57.237Z,12644.00